N162SB PHSF-PHMU
Flight info
| Callsign | N162SB |
|---|---|
| Flight time | 0h 7m |
| Altitude | 16000 |
| Route | EHIKU |
| Aircraft | DA62/L-SDFGRY/C |
Departure
| Time | 2026-04-26 15:07 |
|---|---|
| Airport | Bradshaw Army Airfield (PHSF) |
Arrival
| Time | 2026-04-26 15:15 |
|---|---|
| Airport | Waimea Kohala Airport (PHMU) |
| Time | Latitude | Longitude | Altitude | Speed | Heading |
|---|---|---|---|---|---|
| 2026-04-26 14:59 | 19.75912 | -155.55435 | 6129 ft | 0 kts | 196° |
| 2026-04-26 15:04 | 19.75898 | -155.55423 | 6130 ft | 9 kts | 93° |
| 2026-04-26 15:04 | 19.75918 | -155.55407 | 6132 ft | 0 kts | 345° |
| 2026-04-26 15:04 | 19.75933 | -155.55410 | 6132 ft | 9 kts | 353° |
| 2026-04-26 15:04 | 19.75965 | -155.55407 | 6132 ft | 0 kts | 15° |
| 2026-04-26 15:05 | 19.76016 | -155.55371 | 6137 ft | 11 kts | 109° |
| 2026-04-26 15:06 | 19.75982 | -155.55228 | 6150 ft | 29 kts | 101° |
| 2026-04-26 15:06 | 19.75930 | -155.54979 | 6177 ft | 28 kts | 99° |
| 2026-04-26 15:06 | 19.75914 | -155.54876 | 6188 ft | 6 kts | 201° |
| 2026-04-26 15:06 | 19.75940 | -155.55031 | 6173 ft | 52 kts | 282° |
| 2026-04-26 15:07 | 19.76197 | -155.56408 | 6232 ft | 121 kts | 282° |
| 2026-04-26 15:07 | 19.76452 | -155.57282 | 6543 ft | 129 kts | 306° |
| 2026-04-26 15:07 | 19.77123 | -155.57938 | 6886 ft | 134 kts | 318° |
| 2026-04-26 15:08 | 19.77847 | -155.58612 | 7209 ft | 142 kts | 318° |
| 2026-04-26 15:08 | 19.78610 | -155.59314 | 7486 ft | 147 kts | 319° |
| 2026-04-26 15:08 | 19.79390 | -155.60025 | 7748 ft | 152 kts | 319° |
| 2026-04-26 15:08 | 19.80198 | -155.60765 | 8014 ft | 155 kts | 318° |
| 2026-04-26 15:09 | 19.81024 | -155.61524 | 8277 ft | 158 kts | 318° |
| 2026-04-26 15:09 | 19.81889 | -155.62320 | 8322 ft | 172 kts | 319° |
| 2026-04-26 15:09 | 19.82833 | -155.63168 | 8034 ft | 184 kts | 321° |
| 2026-04-26 15:09 | 19.83867 | -155.64038 | 7885 ft | 192 kts | 321° |
| 2026-04-26 15:10 | 19.84907 | -155.64911 | 7739 ft | 189 kts | 321° |
| 2026-04-26 15:10 | 19.85589 | -155.65483 | 7644 ft | 188 kts | 321° |
| 2026-04-26 15:10 | 19.86961 | -155.66636 | 7447 ft | 188 kts | 321° |
| 2026-04-26 15:10 | 19.87981 | -155.67496 | 7305 ft | 187 kts | 321° |
| 2026-04-26 15:11 | 19.88995 | -155.68354 | 7078 ft | 191 kts | 321° |
| 2026-04-26 15:11 | 19.90040 | -155.69244 | 6817 ft | 195 kts | 322° |
| 2026-04-26 15:11 | 19.91087 | -155.70139 | 6530 ft | 191 kts | 322° |
| 2026-04-26 15:11 | 19.92152 | -155.70958 | 6132 ft | 187 kts | 328° |
| 2026-04-26 15:12 | 19.93279 | -155.71561 | 5751 ft | 173 kts | 342° |
| 2026-04-26 15:12 | 19.94376 | -155.71794 | 5358 ft | 152 kts | 359° |
| 2026-04-26 15:12 | 19.95385 | -155.71751 | 4877 ft | 139 kts | 11° |
| 2026-04-26 15:12 | 19.96296 | -155.71519 | 4303 ft | 130 kts | 23° |
| 2026-04-26 15:13 | 19.97022 | -155.71041 | 3690 ft | 110 kts | 48° |
| 2026-04-26 15:13 | 19.97493 | -155.70468 | 3307 ft | 97 kts | 56° |
| 2026-04-26 15:13 | 19.97869 | -155.69941 | 3165 ft | 89 kts | 56° |
| 2026-04-26 15:13 | 19.98242 | -155.69413 | 3084 ft | 88 kts | 55° |
| 2026-04-26 15:14 | 19.98637 | -155.68887 | 3001 ft | 91 kts | 57° |
| 2026-04-26 15:14 | 19.99031 | -155.68331 | 2900 ft | 96 kts | 57° |
| 2026-04-26 15:14 | 19.99422 | -155.67793 | 2772 ft | 89 kts | 54° |
| 2026-04-26 15:14 | 19.99789 | -155.67288 | 2671 ft | 79 kts | 54° |
| 2026-04-26 15:15 | 19.99964 | -155.67061 | 2663 ft | 10 kts | 41° |
| 2026-04-26 15:15 | 19.99926 | -155.67088 | 2664 ft | 29 kts | 230° |
| 2026-04-26 15:15 | 19.99824 | -155.67247 | 2667 ft | 15 kts | 276° |
| 2026-04-26 15:15 | 19.99853 | -155.67305 | 2667 ft | 9 kts | 295° |
| 2026-04-26 15:16 | 19.99886 | -155.67291 | 2664 ft | 6 kts | 53° |
| 2026-04-26 15:16 | 19.99888 | -155.67289 | 2664 ft | 0 kts | 52° |
| 2026-04-26 15:16 | 19.99888 | -155.67288 | 2664 ft | 0 kts | 52° |